createdAt,value
2022-10-29T00:00:08.144Z,94873.53
2022-10-29T00:02:35.800Z,94873.53
2022-10-29T00:05:03.446Z,94879.81
2022-10-29T00:07:31.009Z,94876.25
2022-10-29T00:09:58.565Z,94871.91
2022-10-29T00:12:26.137Z,94873.81
2022-10-29T00:14:55.056Z,94877.34
2022-10-29T00:17:22.674Z,94877.34
2022-10-29T00:19:50.252Z,94871.91
2022-10-29T00:22:17.823Z,94874.63
2022-10-29T00:24:45.459Z,94869.19
2022-10-29T00:27:13.025Z,94867.56
2022-10-29T00:29:40.565Z,94869.47
2022-10-29T00:32:10.535Z,94864.03
2022-10-29T00:34:38.218Z,94870.28
2022-10-29T00:37:05.841Z,94869.47
2022-10-29T00:39:34.321Z,94868.63
2022-10-29T00:42:02.022Z,94871.34
2022-10-29T00:44:31.077Z,94870.53
2022-10-29T00:47:02.557Z,94869.69
2022-10-29T00:49:31.969Z,94877.84
2022-10-29T00:52:01.061Z,94879.72
2022-10-29T00:54:28.746Z,94910.41
2022-10-29T00:56:58.415Z,94904.41
2022-10-29T00:59:26.051Z,94916.91
2022-10-29T01:01:55.834Z,94907.69
2022-10-29T01:04:24.355Z,94905.22
2022-10-29T01:06:53.419Z,94898.16
2022-10-29T01:09:20.973Z,94897.91
2022-10-29T01:11:54.660Z,94891.09
2022-10-29T01:14:26.460Z,94893.56
2022-10-29T01:16:55.661Z,94897.34
2022-10-29T01:19:32.477Z,94891.94
2022-10-29T01:22:01.414Z,94893.56
2022-10-29T01:24:52.909Z,94893.56
2022-10-29T01:27:44.827Z,94888.38
2022-10-29T01:30:16.240Z,94889.22
2022-10-29T01:32:53.315Z,94884.84
2022-10-29T01:35:25.249Z,94880.50
2022-10-29T01:37:59.899Z,94878.59
2022-10-29T01:40:28.856Z,94882.16
2022-10-29T01:42:58.995Z,94886.75
2022-10-29T01:45:27.825Z,94877.78
2022-10-29T01:47:58.729Z,94875.88
2022-10-29T01:50:26.689Z,94873.16
2022-10-29T01:52:54.311Z,94872.38
2022-10-29T01:55:22.819Z,94866.94
2022-10-29T01:57:50.398Z,94865.31
2022-10-29T02:00:19.079Z,94874.25
2022-10-29T02:02:53.391Z,94864.47
2022-10-29T02:05:26.336Z,94856.31
2022-10-29T02:07:55.983Z,94851.72
2022-10-29T02:10:27.717Z,94856.31
2022-10-29T02:12:55.603Z,94847.34
2022-10-29T02:15:26.167Z,94850.06
2022-10-29T02:17:54.021Z,94848.44
2022-10-29T02:20:23.251Z,94851.97
2022-10-29T02:22:50.846Z,94846.53
2022-10-29T02:25:18.493Z,94845.72
2022-10-29T02:27:46.067Z,94845.72
2022-10-29T02:30:13.600Z,94845.72
2022-10-29T02:32:41.195Z,94845.72
2022-10-29T02:35:09.525Z,94851.13
2022-10-29T02:37:38.491Z,94851.13
2022-10-29T02:40:07.003Z,94848.44
2022-10-29T02:42:34.600Z,94847.63
2022-10-29T02:45:02.145Z,94839.47
2022-10-29T02:47:29.740Z,94848.69
2022-10-29T02:49:57.263Z,94837.84
2022-10-29T02:52:24.811Z,94832.41
2022-10-29T02:54:53.730Z,94838.66
2022-10-29T02:57:21.318Z,94837.84
2022-10-29T02:59:48.891Z,94839.72
2022-10-29T03:02:16.599Z,94837.84
2022-10-29T03:04:44.802Z,94841.63
2022-10-29T03:07:12.401Z,94847.06
2022-10-29T03:09:39.903Z,94849.78
2022-10-29T03:12:09.410Z,94842.44
2022-10-29T03:14:36.974Z,94847.88
2022-10-29T03:17:04.499Z,94845.16
2022-10-29T03:19:32.051Z,94848.94
2022-10-29T03:21:59.673Z,94841.63
2022-10-29T03:24:27.194Z,94840.78
2022-10-29T03:26:54.750Z,94835.38
2022-10-29T03:29:23.659Z,94840.78
2022-10-29T03:31:51.207Z,94829.94
2022-10-29T03:34:18.724Z,94832.94
2022-10-29T03:36:46.335Z,94829.94
2022-10-29T03:39:13.906Z,94842.72
2022-10-29T03:41:41.616Z,94844.59
2022-10-29T03:44:09.200Z,94832.94
2022-10-29T03:46:38.139Z,94842.94
2022-10-29T03:49:05.738Z,94840.22
2022-10-29T03:51:33.291Z,94834.81
2022-10-29T03:54:00.850Z,94839.41
2022-10-29T03:56:28.455Z,94836.69
2022-10-29T03:58:56.030Z,94839.41
2022-10-29T04:01:23.833Z,94839.41
2022-10-29T04:03:52.867Z,94840.22
2022-10-29T04:06:20.499Z,94835.88
2022-10-29T04:08:48.033Z,94846.72
2022-10-29T04:11:15.639Z,94844.03
2022-10-29T04:13:43.227Z,94845.66
2022-10-29T04:16:10.860Z,94839.66
2022-10-29T04:18:38.467Z,94841.31
2022-10-29T04:26:34.604Z,94841.56
2022-10-29T04:29:30.839Z,94836.13
2022-10-29T04:31:58.392Z,94833.41
2022-10-29T04:34:26.095Z,94838.84
2022-10-29T04:36:55.055Z,94834.25
2022-10-29T04:39:23.527Z,94842.38
2022-10-29T04:41:51.312Z,94841.56
2022-10-29T04:44:19.955Z,94841.56
2022-10-29T04:46:47.594Z,94848.88
2022-10-29T04:49:15.272Z,94848.88
2022-10-29T04:51:42.875Z,94845.34
2022-10-29T04:54:11.939Z,94848.88
2022-10-29T04:56:39.457Z,94838.03
2022-10-29T04:59:07.082Z,94848.06
2022-10-29T05:04:03.108Z,94839.91
2022-10-29T05:06:30.688Z,94835.56
2022-10-29T05:08:58.230Z,94841.81
2022-10-29T05:11:27.139Z,94832.84
2022-10-29T05:13:54.715Z,94839.09
2022-10-29T05:16:22.326Z,94835.56
2022-10-29T05:18:49.917Z,94830.97
2022-10-29T05:21:17.523Z,94830.13
2022-10-29T05:23:45.085Z,94832.03
2022-10-29T05:26:12.768Z,94833.91
2022-10-29T05:28:41.659Z,94832.03
2022-10-29T05:31:09.259Z,94830.41
2022-10-29T05:33:36.860Z,94840.19
2022-10-29T05:36:04.937Z,94847.50
2022-10-29T05:38:32.788Z,94848.31
2022-10-29T05:41:00.444Z,94841.25
2022-10-29T05:43:28.047Z,94844.78
2022-10-29T05:45:57.026Z,94841.25
2022-10-29T05:48:24.594Z,94842.31
2022-10-29T05:50:52.260Z,94836.88
2022-10-29T05:53:19.831Z,94838.78
2022-10-29T05:55:47.413Z,94844.22
2022-10-29T05:58:15.303Z,94849.41
2022-10-29T06:00:43.783Z,94842.31
2022-10-29T06:03:15.286Z,94847.72
2022-10-29T06:05:42.907Z,94849.41
2022-10-29T06:08:10.628Z,94850.44
2022-10-29T06:10:38.299Z,94852.34
2022-10-29T06:13:10.999Z,94850.44
2022-10-29T06:15:38.544Z,94853.16
2022-10-29T06:18:06.142Z,94848.81
2022-10-29T06:20:35.053Z,94841.50
2022-10-29T06:23:02.615Z,94846.09
2022-10-29T06:25:30.236Z,94848.81
2022-10-29T06:28:01.782Z,94851.50
2022-10-29T06:30:29.997Z,94846.94
2022-10-29T06:32:57.774Z,94848.81
2022-10-29T06:35:25.738Z,94841.75
2022-10-29T06:37:55.041Z,94846.94
2022-10-29T06:40:23.091Z,94850.72
2022-10-29T06:42:50.669Z,94856.13
2022-10-29T06:45:18.269Z,94849.88
2022-10-29T06:47:46.331Z,94853.41
2022-10-29T06:50:14.463Z,94849.06
2022-10-29T06:52:42.001Z,94850.72
2022-10-29T06:55:11.236Z,94853.66
2022-10-29T06:57:38.846Z,94855.31
2022-10-29T07:00:08.655Z,94854.50
2022-10-29T07:02:36.441Z,94858.28
2022-10-29T07:05:04.172Z,94863.72
2022-10-29T07:07:31.711Z,94861.00
2022-10-29T07:09:59.300Z,94864.50
2022-10-29T07:12:28.266Z,94869.13
2022-10-29T07:14:55.796Z,94865.59
2022-10-29T07:17:23.415Z,94865.59
2022-10-29T07:19:51.148Z,94862.88
2022-10-29T07:22:18.888Z,94860.16
2022-10-29T07:24:46.499Z,94861.81
2022-10-29T07:27:14.364Z,94862.06
2022-10-29T07:29:43.378Z,94866.41
2022-10-29T07:32:10.946Z,94868.31
2022-10-29T07:34:38.579Z,94871.00
2022-10-29T07:37:06.164Z,94874.56
2022-10-29T07:39:33.698Z,94869.13
2022-10-29T07:42:01.242Z,94870.78
2022-10-29T07:44:28.824Z,94876.19
2022-10-29T07:46:57.759Z,94878.06
2022-10-29T07:49:25.341Z,94877.31
2022-10-29T07:51:52.906Z,94880.09
2022-10-29T07:54:20.485Z,94874.47
2022-10-29T07:56:48.038Z,94878.91
2022-10-29T07:59:15.673Z,94878.50
2022-10-29T08:01:43.345Z,94885.13
2022-10-29T08:04:13.389Z,94877.63
2022-10-29T08:06:40.982Z,94880.13
2022-10-29T08:09:08.712Z,94878.31
2022-10-29T08:11:36.385Z,94864.78
2022-10-29T08:14:03.972Z,94875.44
2022-10-29T08:16:31.554Z,94870.31
2022-10-29T08:18:59.107Z,94866.00
2022-10-29T08:21:28.192Z,94860.06
2022-10-29T08:23:56.265Z,94862.00
2022-10-29T08:26:23.945Z,94858.78
2022-10-29T08:28:51.498Z,94852.00
2022-10-29T08:31:19.435Z,94849.59
2022-10-29T08:33:48.760Z,94858.06
2022-10-29T08:36:16.864Z,94854.84
2022-10-29T08:38:45.804Z,94855.94
2022-10-29T08:41:39.182Z,94856.25
2022-10-29T08:44:20.027Z,94857.66
2022-10-29T08:46:48.378Z,94855.72
2022-10-29T08:49:19.069Z,94849.78
2022-10-29T08:51:50.660Z,94851.41
2022-10-29T08:54:31.480Z,94851.72
2022-10-29T08:57:00.296Z,94856.66
2022-10-29T08:59:29.200Z,94853.44
2022-10-29T09:01:57.102Z,94851.28
2022-10-29T09:04:25.664Z,94848.03
2022-10-29T09:07:08.570Z,94853.78
2022-10-29T09:09:39.744Z,94861.41
2022-10-29T09:12:27.196Z,94854.09
2022-10-29T09:15:18.773Z,94852.72
2022-10-29T09:17:49.900Z,94861.19
2022-10-29T09:20:24.258Z,94865.00
2022-10-29T09:22:56.316Z,94861.78
2022-10-29T09:25:29.028Z,94865.06
2022-10-29T09:28:04.808Z,94865.09
2022-10-29T09:30:32.547Z,94859.66
2022-10-29T09:33:01.361Z,94860.75
2022-10-29T09:35:37.309Z,94861.56
2022-10-29T09:38:08.843Z,94859.41
2022-10-29T09:40:39.025Z,94856.16
2022-10-29T09:43:07.431Z,94860.81
2022-10-29T09:45:42.219Z,94860.81
2022-10-29T09:48:12.239Z,94854.81
2022-10-29T09:50:41.697Z,94852.03
2022-10-29T09:53:09.399Z,94854.22
2022-10-29T09:55:39.987Z,94847.38
2022-10-29T09:58:07.767Z,94841.41
2022-10-29T10:00:35.491Z,94845.19
2022-10-29T10:03:04.418Z,94844.91
2022-10-29T10:05:34.860Z,94843.25
2022-10-29T10:08:07.656Z,94844.06
2022-10-29T10:10:35.483Z,94838.31
2022-10-29T10:13:04.932Z,94833.41
2022-10-29T10:15:34.013Z,94838.56
2022-10-29T10:18:02.478Z,94834.44
2022-10-29T10:20:37.675Z,94828.44
2022-10-29T10:23:24.928Z,94834.13
2022-10-29T10:25:52.821Z,94828.16
2022-10-29T10:28:22.953Z,94824.03
2022-10-29T10:31:13.548Z,94819.69
2022-10-29T10:33:51.829Z,94821.00
2022-10-29T10:36:19.814Z,94820.47
2022-10-29T10:38:48.082Z,94815.28
2022-10-29T10:41:16.144Z,94809.00
2022-10-29T10:43:45.659Z,94808.44
2022-10-29T10:46:14.971Z,94803.28
2022-10-29T10:48:42.516Z,94806.00
2022-10-29T10:51:11.687Z,94798.94
2022-10-29T10:53:40.348Z,94800.00
2022-10-29T10:56:14.402Z,94801.06
2022-10-29T10:58:44.240Z,94794.84
2022-10-29T11:01:14.442Z,94799.44
2022-10-29T11:03:43.359Z,94791.56
2022-10-29T11:06:12.370Z,94793.44
2022-10-29T11:08:43.303Z,94789.94
2022-10-29T11:11:12.490Z,94784.50
2022-10-29T11:13:40.448Z,94786.38
2022-10-29T11:16:09.259Z,94782.84
2022-10-29T11:18:39.428Z,94781.19
2022-10-29T11:21:10.279Z,94772.25
2022-10-29T11:23:43.573Z,94777.66
2022-10-29T11:26:14.146Z,94773.31
2022-10-29T11:28:44.035Z,94767.88
2022-10-29T11:31:15.923Z,94770.03
2022-10-29T11:33:49.154Z,94763.78
2022-10-29T11:36:19.840Z,94761.06
2022-10-29T11:38:49.275Z,94760.25
2022-10-29T11:41:22.990Z,94761.34
2022-10-29T11:43:50.612Z,94759.69
2022-10-29T11:46:20.967Z,94753.44
2022-10-29T11:48:54.721Z,94750.72
2022-10-29T11:51:27.793Z,94747.16
2022-10-29T11:53:58.716Z,94746.38
2022-10-29T11:56:43.872Z,94738.22
2022-10-29T11:59:14.769Z,94742.81
2022-10-29T12:01:45.749Z,94736.59
2022-10-29T12:04:24.025Z,94735.75
2022-10-29T12:06:57.867Z,94725.72
2022-10-29T12:09:36.386Z,94727.59
2022-10-29T12:12:05.315Z,94727.59
2022-10-29T12:14:34.611Z,94720.53
2022-10-29T12:17:04.548Z,94720.53
2022-10-29T12:19:40.153Z,94717.00
2022-10-29T12:22:13.806Z,94718.66
2022-10-29T12:24:50.915Z,94717.81
2022-10-29T12:27:20.617Z,94717.81
2022-10-29T12:29:51.192Z,94711.56
2022-10-29T12:32:22.041Z,94714.28
2022-10-29T12:34:54.188Z,94712.38
2022-10-29T12:37:26.184Z,94715.38
2022-10-29T12:39:55.658Z,94711.81
2022-10-29T12:42:25.880Z,94709.94
2022-10-29T12:45:01.641Z,94709.13
2022-10-29T12:47:33.834Z,94712.66
2022-10-29T12:50:08.343Z,94703.69
2022-10-29T12:52:39.357Z,94700.97
2022-10-29T12:55:07.060Z,94696.63
2022-10-29T12:57:35.574Z,94698.50
2022-10-29T13:00:35.028Z,94701.22
2022-10-29T13:03:03.162Z,94697.69
2022-10-29T13:05:42.851Z,94691.44
2022-10-29T13:08:19.331Z,94692.50
2022-10-29T13:10:54.172Z,94692.50
2022-10-29T13:13:25.987Z,94685.19
2022-10-29T13:15:59.755Z,94690.63
2022-10-29T13:18:28.684Z,94685.44
2022-10-29T13:20:57.747Z,94682.72
2022-10-29T13:23:34.810Z,94684.63
2022-10-29T13:26:03.092Z,94684.38
2022-10-29T13:28:50.628Z,94679.22
2022-10-29T13:31:51.918Z,94680.84
2022-10-29T13:34:53.280Z,94679.22
2022-10-29T13:37:52.772Z,94680.28
2022-10-29T13:40:43.418Z,94675.91
2022-10-29T13:43:13.421Z,94677.56
2022-10-29T13:45:42.180Z,94671.31
2022-10-29T13:48:13.625Z,94675.66
2022-10-29T13:50:41.393Z,94674.03
2022-10-29T13:53:13.492Z,94672.38
2022-10-29T13:55:41.295Z,94667.75
2022-10-29T13:58:12.530Z,94666.13
2022-10-29T14:00:41.136Z,94666.13
2022-10-29T14:03:15.126Z,94670.75
2022-10-29T14:05:43.972Z,94664.50
2022-10-29T14:08:16.228Z,94671.84
2022-10-29T14:10:45.180Z,94668.28
2022-10-29T14:13:29.077Z,94668.28
2022-10-29T14:16:03.595Z,94670.44
2022-10-29T14:18:32.144Z,94668.56
2022-10-29T14:21:00.340Z,94664.22
2022-10-29T14:23:29.631Z,94668.81
2022-10-29T14:25:57.726Z,94663.38
2022-10-29T14:28:25.907Z,94674.25
2022-10-29T14:31:01.428Z,94674.25
2022-10-29T14:33:29.895Z,94672.63
2022-10-29T14:36:03.090Z,94678.03
2022-10-29T14:38:35.103Z,94671.78
2022-10-29T14:41:02.786Z,94669.34
2022-10-29T14:43:30.347Z,94673.16
2022-10-29T14:45:57.952Z,94674.78
2022-10-29T14:48:25.565Z,94673.16
2022-10-29T14:50:56.413Z,94670.44
2022-10-29T14:53:30.131Z,94669.59
2022-10-29T14:55:59.244Z,94671.50
2022-10-29T14:58:27.528Z,94667.97
2022-10-29T15:00:56.587Z,94666.31
2022-10-29T15:03:25.098Z,94664.69
2022-10-29T15:05:52.743Z,94668.22
2022-10-29T15:08:28.980Z,94668.22
2022-10-29T15:10:59.914Z,94666.56
2022-10-29T15:13:31.502Z,94662.22
2022-10-29T15:16:00.558Z,94663.84
2022-10-29T15:18:28.147Z,94666.84
2022-10-29T15:20:56.094Z,94666.03
2022-10-29T15:23:25.822Z,94665.22
2022-10-29T15:25:55.020Z,94667.94
2022-10-29T15:28:24.931Z,94660.03
2022-10-29T15:30:52.830Z,94657.31
2022-10-29T15:33:23.114Z,94661.66
2022-10-29T15:35:51.746Z,94658.16
2022-10-29T15:39:03.623Z,94660.03
2022-10-29T15:41:32.136Z,94656.53
2022-10-29T15:44:01.113Z,94655.69
2022-10-29T15:46:29.807Z,94659.47
2022-10-29T15:48:57.347Z,94654.06
2022-10-29T15:51:26.666Z,94665.72
2022-10-29T15:53:54.423Z,94663.28
2022-10-29T15:56:22.010Z,94653.50
2022-10-29T15:58:49.753Z,94661.38
2022-10-29T16:01:18.788Z,94661.38
2022-10-29T16:03:46.458Z,94653.22
2022-10-29T16:06:14.117Z,94659.78
2022-10-29T16:08:42.564Z,94658.72
2022-10-29T16:11:14.092Z,94656.06
2022-10-29T16:13:42.082Z,94657.47
2022-10-29T16:16:11.777Z,94659.97
2022-10-29T16:18:40.882Z,94668.69
2022-10-29T16:21:08.560Z,94661.38
2022-10-29T16:23:38.665Z,94663.88
2022-10-29T16:26:06.507Z,94661.16
2022-10-29T16:28:34.297Z,94663.63
2022-10-29T16:31:02.026Z,94660.97
2022-10-29T16:33:30.047Z,94666.69
2022-10-29T16:35:59.177Z,94656.94
2022-10-29T16:38:26.897Z,94661.03
2022-10-29T16:40:54.761Z,94665.66
2022-10-29T16:43:22.473Z,94658.88
2022-10-29T16:45:50.345Z,94663.78
2022-10-29T16:48:18.190Z,94652.66
2022-10-29T16:50:46.068Z,94650.50
2022-10-29T16:53:15.317Z,94653.47
2022-10-29T16:55:43.185Z,94655.94
2022-10-29T16:58:12.432Z,94660.84
2022-10-29T17:00:40.181Z,94655.16
2022-10-29T17:03:11.423Z,94656.78
2022-10-29T17:05:40.729Z,94655.16
2022-10-29T17:08:08.977Z,94657.06
2022-10-29T17:10:38.381Z,94652.72
2022-10-29T17:13:07.030Z,94659.00
2022-10-29T17:15:34.816Z,94662.50
2022-10-29T17:18:02.839Z,94657.91
2022-10-29T17:20:30.777Z,94663.88
2022-10-29T17:22:58.545Z,94656.81
2022-10-29T17:25:26.305Z,94663.06
2022-10-29T17:27:55.852Z,94670.13
2022-10-29T17:30:24.009Z,94666.31
2022-10-29T17:32:51.706Z,94661.72
2022-10-29T17:35:19.527Z,94671.50
2022-10-29T17:37:47.180Z,94670.13
2022-10-29T17:40:15.168Z,94673.13
2022-10-29T17:42:42.795Z,94674.78
2022-10-29T17:45:13.485Z,94675.06
2022-10-29T17:47:41.220Z,94671.00
2022-10-29T17:50:09.585Z,94676.69
2022-10-29T17:52:37.268Z,94672.91
2022-10-29T17:55:05.302Z,94670.47
2022-10-29T17:57:32.997Z,94677.25
2022-10-29T18:00:00.653Z,94672.34
2022-10-29T18:02:29.684Z,94674.22
2022-10-29T18:04:57.449Z,94674.78
2022-10-29T18:07:25.270Z,94667.66
2022-10-29T18:09:52.955Z,94667.66
2022-10-29T18:12:20.633Z,94667.34
2022-10-29T18:14:48.244Z,94670.88
2022-10-29T18:17:15.863Z,94668.13
2022-10-29T18:19:44.830Z,94667.03
2022-10-29T18:22:12.460Z,94667.00
2022-10-29T18:24:40.091Z,94670.25
2022-10-29T18:27:07.712Z,94671.59
2022-10-29T18:29:35.422Z,94666.97
2022-10-29T18:32:03.224Z,94671.25
2022-10-29T18:34:31.656Z,94669.63
2022-10-29T18:37:00.798Z,94672.88
2022-10-29T18:39:28.426Z,94670.69
2022-10-29T18:41:57.164Z,94667.41
2022-10-29T18:44:24.872Z,94666.84
2022-10-29T18:46:52.539Z,94661.94
2022-10-29T18:49:20.154Z,94657.88
2022-10-29T18:51:47.719Z,94653.78
2022-10-29T18:54:16.886Z,94657.56
2022-10-29T18:56:44.516Z,94654.31
2022-10-29T18:59:12.713Z,94652.66
2022-10-29T19:01:40.613Z,94654.81
2022-10-29T19:04:09.503Z,94661.31
2022-10-29T19:06:37.791Z,94657.25
2022-10-29T19:09:06.836Z,94652.06
2022-10-29T19:11:36.022Z,94648.78
2022-10-29T19:14:04.636Z,94653.41
2022-10-29T19:16:32.684Z,94646.63
2022-10-29T19:19:01.333Z,94654.75
2022-10-29T19:21:28.922Z,94653.94
2022-10-29T19:23:56.976Z,94641.69
2022-10-29T19:26:25.015Z,94648.75
2022-10-29T19:28:54.054Z,94649.03
2022-10-29T19:31:23.162Z,94642.22
2022-10-29T19:33:50.993Z,94646.84
2022-10-29T19:36:18.728Z,94654.16
2022-10-29T19:38:46.469Z,94645.22
2022-10-29T19:41:14.157Z,94643.28
2022-10-29T19:43:41.823Z,94646.25
2022-10-29T19:46:12.297Z,94643.81
2022-10-29T19:48:40.064Z,94649.25
2022-10-29T19:51:08.294Z,94649.50
2022-10-29T19:53:35.896Z,94647.63
2022-10-29T19:56:03.524Z,94645.16
2022-10-29T19:58:33.252Z,94647.06
2022-10-29T20:01:04.451Z,94647.06
2022-10-29T20:03:33.485Z,94649.19
2022-10-29T20:06:01.200Z,94647.56
2022-10-29T20:08:28.779Z,94645.69
2022-10-29T20:10:56.589Z,94642.41
2022-10-29T20:13:24.588Z,94644.28
2022-10-29T20:15:52.214Z,94638.06
2022-10-29T20:18:19.909Z,94636.44
2022-10-29T20:20:56.643Z,94636.69
2022-10-29T20:23:25.488Z,94637.75
2022-10-29T20:25:53.345Z,94642.94
2022-10-29T20:28:21.029Z,94635.28
2022-10-29T20:30:48.592Z,94636.38
2022-10-29T20:33:16.333Z,94644.28
2022-10-29T20:35:44.020Z,94630.16
2022-10-29T20:38:13.076Z,94637.22
2022-10-29T20:40:40.772Z,94637.47
2022-10-29T20:43:08.541Z,94641.81
2022-10-29T20:45:36.157Z,94637.47
2022-10-29T20:48:03.912Z,94639.38
2022-10-29T20:50:31.576Z,94635.03
2022-10-29T20:52:59.315Z,94638.53
2022-10-29T20:55:28.643Z,94638.78
2022-10-29T20:57:56.629Z,94637.97
2022-10-29T21:00:24.434Z,94636.91
2022-10-29T21:02:52.085Z,94636.06
2022-10-29T21:05:19.808Z,94637.97
2022-10-29T21:07:47.589Z,94636.34
2022-10-29T21:10:15.439Z,94631.16
2022-10-29T21:12:44.564Z,94634.72
2022-10-29T21:15:12.174Z,94632.81
2022-10-29T21:17:39.922Z,94632.81
2022-10-29T21:20:08.446Z,94628.44
2022-10-29T21:22:36.071Z,94627.66
2022-10-29T21:25:03.923Z,94626.81
2022-10-29T21:27:31.609Z,94636.03
2022-10-29T21:30:00.854Z,94629.53
2022-10-29T21:32:28.489Z,94632.25
2022-10-29T21:34:56.149Z,94623.31
2022-10-29T21:37:23.795Z,94621.66
2022-10-29T21:39:51.391Z,94617.03
2022-10-29T21:42:18.911Z,94617.03
2022-10-29T21:44:46.480Z,94621.66
2022-10-29T21:47:15.384Z,94620.84
2022-10-29T21:49:44.964Z,94624.38
2022-10-29T21:52:15.761Z,94622.72
2022-10-29T21:54:43.474Z,94625.44
2022-10-29T21:57:11.095Z,94621.91
2022-10-29T21:59:38.694Z,94625.72
2022-10-29T22:02:06.385Z,94615.09
2022-10-29T22:04:35.552Z,94621.38
2022-10-29T22:07:03.544Z,94620.53
2022-10-29T22:09:31.094Z,94622.16
2022-10-29T22:11:58.647Z,94619.72
2022-10-29T22:14:26.203Z,94617.81
2022-10-29T22:16:56.693Z,94617.00
2022-10-29T22:19:24.480Z,94619.72
2022-10-29T22:21:55.234Z,94612.38
2022-10-29T22:24:22.872Z,94611.03
2022-10-29T22:26:50.483Z,94608.88
2022-10-29T22:29:18.105Z,94609.13
2022-10-29T22:31:45.656Z,94603.69
2022-10-29T22:34:13.261Z,94603.94
2022-10-29T22:36:40.988Z,94603.94
2022-10-29T22:39:09.971Z,94604.78
2022-10-29T22:41:37.571Z,94595.00
2022-10-29T22:44:05.529Z,94601.22
2022-10-29T22:46:33.160Z,94603.94
2022-10-29T22:49:02.417Z,94595.00
2022-10-29T22:51:30.958Z,94592.28
2022-10-29T22:53:58.620Z,94588.19
2022-10-29T22:56:28.405Z,94592.81
2022-10-29T22:58:56.096Z,94581.13
2022-10-29T23:01:25.289Z,94588.19
2022-10-29T23:03:53.249Z,94584.66
2022-10-29T23:06:21.633Z,94584.13
2022-10-29T23:08:51.279Z,94585.75
2022-10-29T23:11:20.175Z,94589.53
2022-10-29T23:13:49.423Z,94581.41
2022-10-29T23:16:16.996Z,94584.13
2022-10-29T23:18:44.678Z,94582.19
2022-10-29T23:21:12.730Z,94580.56
2022-10-29T23:23:40.444Z,94575.97
2022-10-29T23:26:08.080Z,94580.31
2022-10-29T23:28:36.467Z,94577.06
2022-10-29T23:31:06.835Z,94575.66
2022-10-29T23:33:34.970Z,94578.09
2022-10-29T23:36:03.174Z,94574.34
2022-10-29T23:38:30.956Z,94575.38
2022-10-29T23:40:58.529Z,94570.25
2022-10-29T23:43:26.212Z,94573.50
2022-10-29T23:45:53.801Z,94569.16
2022-10-29T23:48:23.057Z,94571.88
2022-10-29T23:50:50.812Z,94562.09
2022-10-29T23:53:18.467Z,94559.63
2022-10-29T23:55:46.355Z,94561.25
2022-10-29T23:58:14.181Z,94559.38
